TimeCDT,TemperatureF,Dew PointF,Humidity,Sea Level PressureIn,VisibilityMPH,Wind Direction,Wind SpeedMPH,Gust SpeedMPH,PrecipitationIn,Events,Conditions,WindDirDegrees,DateUTC
12:15 AM,66.2,57.2,73,29.76,10.0,South,20.7,27.6,N/A,,Clear,170,2013-03-17 05:15:00
12:35 AM,65.7,57.4,75,29.75,10.0,South,21.9,28.8,N/A,,Clear,170,2013-03-17 05:35:00
12:55 AM,65.3,57.7,76,29.76,10.0,South,19.6,25.3,N/A,,Mostly Cloudy,170,2013-03-17 05:55:00
1:15 AM,65.8,58.1,76,29.75,10.0,South,18.4,27.6,N/A,,Overcast,170,2013-03-17 06:15:00
1:35 AM,66.2,58.1,75,29.76,10.0,South,21.9,31.1,N/A,,Overcast,170,2013-03-17 06:35:00
1:55 AM,66.2,58.1,75,29.75,10.0,South,20.7,27.6,N/A,,Overcast,180,2013-03-17 06:55:00
2:15 AM,66.2,58.1,75,29.76,10.0,South,19.6,24.2,N/A,,Overcast,170,2013-03-17 07:15:00
2:35 AM,66.2,58.1,75,29.76,10.0,South,17.3,-,N/A,,Overcast,180,2013-03-17 07:35:00
2:55 AM,65.3,58.1,77,29.75,10.0,South,15.0,24.2,N/A,,Overcast,170,2013-03-17 07:55:00
3:15 AM,65.3,58.1,77,29.75,10.0,South,15.0,21.9,N/A,,Overcast,170,2013-03-17 08:15:00
3:35 AM,64.6,57.9,79,29.75,10.0,South,12.7,23.0,N/A,,Scattered Clouds,180,2013-03-17 08:35:00
3:55 AM,64.4,57.9,79,29.75,10.0,South,15.0,20.7,N/A,,Clear,170,2013-03-17 08:55:00
4:15 AM,64.0,58.1,81,29.75,10.0,South,10.4,18.4,N/A,,Clear,190,2013-03-17 09:15:00
4:35 AM,63.7,58.1,82,29.75,10.0,South,12.7,-,N/A,,Mostly Cloudy,170,2013-03-17 09:35:00
4:55 AM,63.5,58.1,83,29.74,10.0,South,10.4,-,N/A,,Overcast,170,2013-03-17 09:55:00
5:15 AM,63.9,58.5,83,29.75,10.0,South,12.7,-,N/A,,Overcast,170,2013-03-17 10:15:00
5:35 AM,63.9,58.6,83,29.75,10.0,South,8.1,-,N/A,,Overcast,170,2013-03-17 10:35:00
5:55 AM,63.9,59.0,84,29.76,10.0,South,9.2,-,N/A,,Overcast,170,2013-03-17 10:55:00
6:15 AM,64.0,59.0,84,29.76,10.0,South,8.1,-,N/A,,Overcast,170,2013-03-17 11:15:00
6:35 AM,64.0,59.0,84,29.77,10.0,South,5.8,-,N/A,,Overcast,180,2013-03-17 11:35:00
6:55 AM,64.0,58.8,83,29.77,10.0,SSE,8.1,-,N/A,,Overcast,160,2013-03-17 11:55:00
7:15 AM,64.0,58.6,83,29.77,10.0,SSE,10.4,-,N/A,,Overcast,160,2013-03-17 12:15:00
7:35 AM,64.0,58.5,82,29.78,10.0,SSE,9.2,-,N/A,,Overcast,160,2013-03-17 12:35:00
7:55 AM,64.4,58.5,81,29.78,10.0,SSE,8.1,-,N/A,,Overcast,160,2013-03-17 12:55:00
8:15 AM,64.6,58.1,79,29.78,10.0,South,10.4,-,N/A,,Overcast,170,2013-03-17 13:15:00
8:35 AM,65.3,58.1,77,29.79,10.0,South,9.2,-,N/A,,Overcast,170,2013-03-17 13:35:00
8:55 AM,65.5,58.1,77,29.78,10.0,SSE,12.7,-,N/A,,Overcast,160,2013-03-17 13:55:00
9:15 AM,65.7,58.1,77,29.79,10.0,South,11.5,-,N/A,,Overcast,170,2013-03-17 14:15:00
9:35 AM,66.2,58.1,75,29.79,10.0,SSE,10.4,-,N/A,,Overcast,160,2013-03-17 14:35:00
9:55 AM,66.2,58.1,75,29.80,10.0,SSE,11.5,17.3,N/A,,Overcast,160,2013-03-17 14:55:00
10:15 AM,66.2,58.1,75,29.80,10.0,South,8.1,-,N/A,,Overcast,180,2013-03-17 15:15:00
10:35 AM,66.4,58.8,77,29.81,10.0,South,10.4,-,N/A,,Overcast,170,2013-03-17 15:35:00
10:55 AM,65.5,55.8,71,29.81,10.0,West,4.6,-,N/A,,Overcast,260,2013-03-17 15:55:00
11:15 AM,66.9,56.5,69,29.80,10.0,SSW,5.8,-,N/A,,Overcast,200,2013-03-17 16:15:00
11:35 AM,68.4,57.0,67,29.79,10.0,South,8.1,-,N/A,,Mostly Cloudy,180,2013-03-17 16:35:00
11:55 AM,70.0,56.5,62,29.78,10.0,South,10.4,-,N/A,,Overcast,190,2013-03-17 16:55:00
12:15 PM,71.2,55.8,58,29.78,10.0,South,13.8,-,N/A,,Overcast,190,2013-03-17 17:15:00
12:35 PM,71.8,55.6,57,29.78,10.0,SSW,13.8,18.4,N/A,,Overcast,200,2013-03-17 17:35:00
12:55 PM,72.9,55.4,54,29.77,10.0,SSW,13.8,19.6,N/A,,Mostly Cloudy,210,2013-03-17 17:55:00
1:15 PM,73.6,55.4,53,29.76,10.0,SW,12.7,19.6,N/A,,Mostly Cloudy,220,2013-03-17 18:15:00
1:35 PM,73.4,55.2,53,29.76,10.0,SW,12.7,18.4,N/A,,Overcast,220,2013-03-17 18:35:00
1:55 PM,73.9,55.2,52,29.75,10.0,SSW,15.0,21.9,N/A,,Overcast,210,2013-03-17 18:55:00
2:15 PM,73.6,55.2,53,29.74,10.0,South,15.0,-,N/A,,Overcast,190,2013-03-17 19:15:00
2:35 PM,73.9,54.9,51,29.73,10.0,SW,11.5,17.3,N/A,,Overcast,230,2013-03-17 19:35:00
2:55 PM,73.6,54.0,50,29.72,10.0,WSW,11.5,16.1,N/A,,Overcast,240,2013-03-17 19:55:00
3:15 PM,73.6,53.8,50,29.71,10.0,WSW,11.5,18.4,N/A,,Mostly Cloudy,250,2013-03-17 20:15:00
3:35 PM,73.9,53.1,48,29.71,10.0,SW,10.4,-,N/A,,Mostly Cloudy,230,2013-03-17 20:35:00
3:55 PM,75.6,52.7,45,29.70,10.0,SW,6.9,-,N/A,,Mostly Cloudy,230,2013-03-17 20:55:00
4:15 PM,75.7,52.2,44,29.69,10.0,WSW,9.2,18.4,N/A,,Scattered Clouds,250,2013-03-17 21:15:00
4:35 PM,75.4,51.8,44,29.69,10.0,WSW,6.9,17.3,N/A,,Scattered Clouds,240,2013-03-17 21:35:00
4:55 PM,75.4,51.8,44,29.68,10.0,WSW,10.4,16.1,N/A,,Clear,250,2013-03-17 21:55:00
5:15 PM,75.6,51.6,43,29.68,10.0,West,10.4,-,N/A,,Scattered Clouds,270,2013-03-17 22:15:00
5:35 PM,73.9,50.7,44,29.68,10.0,WNW,6.9,-,N/A,,Scattered Clouds,290,2013-03-17 22:35:00
5:55 PM,73.0,50.5,45,29.69,10.0,WNW,8.1,-,N/A,,Scattered Clouds,300,2013-03-17 22:55:00
6:15 PM,73.4,50.2,44,29.69,10.0,West,10.4,-,N/A,,Clear,280,2013-03-17 23:15:00
6:35 PM,72.5,50.4,46,29.69,10.0,WNW,6.9,-,N/A,,Clear,290,2013-03-17 23:35:00
6:55 PM,71.8,50.0,46,29.69,10.0,WNW,5.8,-,N/A,,Clear,290,2013-03-17 23:55:00
7:15 PM,70.3,50.0,48,29.69,10.0,WNW,4.6,-,N/A,,Scattered Clouds,300,2013-03-18 00:15:00
7:35 PM,68.4,50.2,52,29.70,10.0,NW,5.8,-,N/A,,Clear,310,2013-03-18 00:35:00
7:55 PM,67.1,49.8,54,29.70,10.0,NW,4.6,-,N/A,,Clear,320,2013-03-18 00:55:00
8:15 PM,65.1,49.6,57,29.70,10.0,NW,4.6,-,N/A,,Clear,320,2013-03-18 01:15:00
8:35 PM,64.0,49.5,59,29.70,10.0,Calm,Calm,-,N/A,,Clear,0,2013-03-18 01:35:00
8:55 PM,63.9,49.3,59,29.70,10.0,Calm,Calm,-,N/A,,Clear,0,2013-03-18 01:55:00
9:15 PM,61.5,49.1,64,29.71,10.0,Calm,Calm,-,N/A,,Clear,0,2013-03-18 02:15:00
9:35 PM,61.5,49.6,65,29.71,10.0,Calm,Calm,-,N/A,,Clear,0,2013-03-18 02:35:00
9:55 PM,62.6,49.5,62,29.72,10.0,Calm,Calm,-,N/A,,Clear,0,2013-03-18 02:55:00
10:15 PM,59.9,49.1,67,29.73,10.0,NNW,3.5,-,N/A,,Clear,340,2013-03-18 03:15:00
10:35 PM,57.4,49.3,74,29.74,10.0,Calm,Calm,-,N/A,,Scattered Clouds,0,2013-03-18 03:35:00
10:55 PM,57.4,49.1,74,29.74,10.0,Calm,Calm,-,N/A,,Scattered Clouds,0,2013-03-18 03:55:00
11:15 PM,57.0,49.1,75,29.74,10.0,NW,4.6,-,N/A,,Clear,320,2013-03-18 04:15:00
11:35 PM,55.9,49.5,79,29.73,10.0,Calm,Calm,-,N/A,,Clear,0,2013-03-18 04:35:00
11:55 PM,55.9,48.9,77,29.73,10.0,North,3.5,-,N/A,,Clear,350,2013-03-18 04:55:00